Time;durP1;ratioP1;P1;durP2;ratioP2;P2;SDS_P1;SDS_P2;PMS_P1;PMS_P2;Temp;Humidity;BMP_temperature;BMP_pressure;BME280_temperature;BME280_humidity;BME280_pressure;Samples;Min_cycle;Max_cycle;Signal;HPM_P1;HPM_P2
2022/11/29 00:01:42;;;;;;;0.35;0.35;;;;;;;;;;5049818;28;20030;-71
2022/11/29 00:04:08;;;;;;;11.50;1.85;;;;;;;;;;5066064;28;20059;-68
2022/11/29 00:06:34;;;;;;;0.60;0.60;;;;;;;;;;5050441;28;20021;-69
2022/11/29 00:09:01;;;;;;;0.25;0.25;;;;;;;;;;5050076;28;20400;-69
2022/11/29 00:14:14;;;;;;;0.20;0.20;;;;;;;;;;5049519;28;20033;-69
2022/11/29 00:16:40;;;;;;;0.70;0.70;;;;;;;;;;5052154;28;20037;-69
2022/11/29 00:19:06;;;;;;;1.15;1.15;;;;;;;;;;5053745;28;20072;-69
2022/11/29 00:21:32;;;;;;;0.10;0.10;;;;;;;;;;5052581;28;20099;-67
2022/11/29 00:23:58;;;;;;;0.13;0.13;;;;;;;;;;5053783;28;20132;-70
2022/11/29 00:26:24;;;;;;;0.68;0.68;;;;;;;;;;5066557;28;20075;-68
2022/11/29 00:28:49;;;;;;;0.65;0.65;;;;;;;;;;5061039;28;20123;-70
2022/11/29 00:31:19;;;;;;;0.30;0.30;;;;;;;;;;5072347;28;20103;-68
2022/11/29 00:33:44;;;;;;;0.45;0.45;;;;;;;;;;5073373;28;20047;-68
2022/11/29 00:36:10;;;;;;;3.45;3.25;;;;;;;;;;5069317;28;20467;-69
2022/11/29 00:38:36;;;;;;;0.10;0.10;;;;;;;;;;5069002;28;20468;-69
2022/11/29 00:41:01;;;;;;;3.42;3.22;;;;;;;;;;5073988;28;20031;-69
2022/11/29 00:43:27;;;;;;;0.10;0.10;;;;;;;;;;5072741;28;20475;-69
2022/11/29 00:45:52;;;;;;;1.65;1.23;;;;;;;;;;5073294;28;20384;-69
2022/11/29 00:48:18;;;;;;;0.40;0.40;;;;;;;;;;5073350;28;20032;-69
2022/11/29 00:50:43;;;;;;;0.38;0.38;;;;;;;;;;5073308;28;20020;-68
2022/11/29 00:53:08;;;;;;;0.20;0.20;;;;;;;;;;5073499;28;20506;-68
2022/11/29 00:55:34;;;;;;;0.63;0.63;;;;;;;;;;5073050;28;20044;-67
2022/11/29 00:57:59;;;;;;;0.20;0.20;;;;;;;;;;5073653;28;20056;-68
2022/11/29 01:00:25;;;;;;;3.75;1.75;;;;;;;;;;5071555;28;20039;-71
2022/11/29 01:02:50;;;;;;;0.20;0.20;;;;;;;;;;5064301;28;20047;-68
2022/11/29 01:05:16;;;;;;;0.10;0.10;;;;;;;;;;5053357;28;20448;-69
2022/11/29 01:07:41;;;;;;;1.45;1.45;;;;;;;;;;5053205;28;20096;-68
2022/11/29 01:10:07;;;;;;;1.88;1.73;;;;;;;;;;5053156;28;20029;-68
2022/11/29 01:12:35;;;;;;;0.20;0.20;;;;;;;;;;5054594;28;20491;-68
2022/11/29 01:15:01;;;;;;;0.85;0.85;;;;;;;;;;5061508;28;20033;-67
2022/11/29 01:17:27;;;;;;;2.70;2.53;;;;;;;;;;5088156;28;20087;-69
2022/11/29 01:19:52;;;;;;;0.30;0.30;;;;;;;;;;5067868;28;20436;-69
2022/11/29 01:22:17;;;;;;;0.20;0.20;;;;;;;;;;5072878;28;20033;-69
2022/11/29 01:24:43;;;;;;;0.10;0.10;;;;;;;;;;5073545;28;20029;-68
2022/11/29 01:27:08;;;;;;;0.10;0.10;;;;;;;;;;5077162;28;20090;-68
2022/11/29 01:29:34;;;;;;;0.20;0.20;;;;;;;;;;5076920;28;20549;-70
2022/11/29 01:31:59;;;;;;;0.20;0.20;;;;;;;;;;5076931;28;20024;-70
2022/11/29 01:34:25;;;;;;;10.23;2.10;;;;;;;;;;5076923;28;20032;-69
2022/11/29 01:36:50;;;;;;;0.70;0.70;;;;;;;;;;5076847;28;20025;-69
2022/11/29 01:39:15;;;;;;;0.10;0.10;;;;;;;;;;5076848;28;20032;-70
2022/11/29 01:41:41;;;;;;;0.10;0.10;;;;;;;;;;5076239;28;20051;-69
2022/11/29 01:44:06;;;;;;;2.28;2.17;;;;;;;;;;5076630;28;20417;-71
2022/11/29 01:46:34;;;;;;;0.20;0.20;;;;;;;;;;5076586;28;20829;-71
2022/11/29 01:49:02;;;;;;;0.10;0.10;;;;;;;;;;5075536;28;20025;-70
2022/11/29 01:51:28;;;;;;;1.25;1.23;;;;;;;;;;5076573;28;20016;-70
2022/11/29 01:53:54;;;;;;;0.20;0.20;;;;;;;;;;5076535;28;20411;-69
2022/11/29 01:56:19;;;;;;;0.20;0.20;;;;;;;;;;5076215;28;20049;-69
2022/11/29 01:58:45;;;;;;;0.40;0.40;;;;;;;;;;5076603;28;20032;-70
2022/11/29 02:01:10;;;;;;;0.10;0.10;;;;;;;;;;5076270;28;20029;-68
2022/11/29 02:03:36;;;;;;;0.15;0.15;;;;;;;;;;5075258;28;20557;-68
2022/11/29 02:06:02;;;;;;;0.20;0.20;;;;;;;;;;5076336;28;20035;-68
2022/11/29 02:08:45;;;;;;;0.15;0.15;;;;;;;;;;5076398;28;20025;-68
2022/11/29 02:11:14;;;;;;;0.20;0.20;;;;;;;;;;5074943;28;20086;-68
2022/11/29 02:14:03;;;;;;;0.13;0.13;;;;;;;;;;5059113;28;20024;-68
2022/11/29 02:16:37;;;;;;;0.10;0.10;;;;;;;;;;5076063;28;20484;-68
2022/11/29 02:19:16;;;;;;;0.20;0.20;;;;;;;;;;5076163;28;20379;-70
2022/11/29 02:21:45;;;;;;;0.10;0.10;;;;;;;;;;5074825;28;20036;-71
2022/11/29 02:24:14;;;;;;;0.20;0.20;;;;;;;;;;5074949;28;20128;-70
2022/11/29 02:27:00;;;;;;;0.20;0.20;;;;;;;;;;5074970;28;20032;-70
2022/11/29 02:29:55;;;;;;;0.10;0.10;;;;;;;;;;5076088;28;20028;-71
2022/11/29 02:32:39;;;;;;;0.10;0.10;;;;;;;;;;5075778;28;20043;-70
2022/11/29 02:35:14;;;;;;;0.68;0.68;;;;;;;;;;5075861;28;20417;-70
2022/11/29 02:37:58;;;;;;;0.10;0.10;;;;;;;;;;5073932;28;20487;-70
2022/11/29 02:40:27;;;;;;;0.10;0.10;;;;;;;;;;5075705;28;20093;-70
2022/11/29 02:43:07;;;;;;;0.20;0.20;;;;;;;;;;5075440;28;20066;-70
2022/11/29 02:45:50;;;;;;;0.28;0.28;;;;;;;;;;5075683;28;20036;-71
2022/11/29 02:48:18;;;;;;;0.13;0.13;;;;;;;;;;5075611;28;20353;-70
2022/11/29 02:50:57;;;;;;;0.10;0.10;;;;;;;;;;5075362;28;20077;-70
2022/11/29 02:53:50;;;;;;;0.20;0.20;;;;;;;;;;5075313;28;20025;-70
2022/11/29 02:56:18;;;;;;;0.20;0.20;;;;;;;;;;5074120;28;20553;-69
2022/11/29 02:58:47;;;;;;;0.10;0.10;;;;;;;;;;5075418;28;20158;-69
2022/11/29 03:01:31;;;;;;;0.10;0.10;;;;;;;;;;5075687;28;20052;-69
2022/11/29 03:04:11;;;;;;;0.10;0.10;;;;;;;;;;5075086;28;20083;-69
2022/11/29 03:06:46;;;;;;;0.20;0.20;;;;;;;;;;5066038;28;20044;-70
2022/11/29 03:09:17;;;;;;;0.50;0.50;;;;;;;;;;5055492;28;20397;-71
2022/11/29 03:11:47;;;;;;;0.10;0.10;;;;;;;;;;5055083;28;20029;-70
2022/11/29 03:14:18;;;;;;;2.28;1.38;;;;;;;;;;5087193;28;20037;-70
2022/11/29 03:16:46;;;;;;;0.10;0.10;;;;;;;;;;5054924;28;20036;-70
2022/11/29 03:19:14;;;;;;;0.20;0.20;;;;;;;;;;5070511;28;20033;-70
2022/11/29 03:21:46;;;;;;;0.32;0.32;;;;;;;;;;5054957;28;20107;-70
2022/11/29 03:24:19;;;;;;;0.20;0.20;;;;;;;;;;5054854;28;20045;-70
2022/11/29 03:26:48;;;;;;;1.25;1.17;;;;;;;;;;5054893;28;20025;-70
2022/11/29 03:29:16;;;;;;;0.20;0.20;;;;;;;;;;5053961;28;20033;-70
2022/11/29 03:32:01;;;;;;;0.20;0.20;;;;;;;;;;5054823;28;20029;-71
2022/11/29 03:34:26;;;;;;;0.47;0.47;;;;;;;;;;5054612;28;20040;-70
2022/11/29 03:36:59;;;;;;;0.20;0.20;;;;;;;;;;5086831;28;20396;-70
2022/11/29 03:39:32;;;;;;;0.20;0.20;;;;;;;;;;5057004;28;20074;-70
2022/11/29 03:42:00;;;;;;;0.22;0.22;;;;;;;;;;5063501;28;20060;-70
2022/11/29 03:44:27;;;;;;;0.20;0.20;;;;;;;;;;5069866;28;20063;-70
2022/11/29 03:46:58;;;;;;;0.20;0.20;;;;;;;;;;5054458;28;20040;-69
2022/11/29 03:49:30;;;;;;;0.20;0.20;;;;;;;;;;5053365;28;20021;-69
2022/11/29 03:51:55;;;;;;;0.20;0.20;;;;;;;;;;5054128;28;20036;-69
2022/11/29 03:54:23;;;;;;;0.20;0.20;;;;;;;;;;5054237;28;20380;-70
2022/11/29 03:56:48;;;;;;;1.08;1.00;;;;;;;;;;5086594;28;20063;-69
2022/11/29 03:59:23;;;;;;;0.50;0.50;;;;;;;;;;5054165;28;20582;-70
2022/11/29 04:02:07;;;;;;;0.13;0.13;;;;;;;;;;5053282;28;20041;-70
2022/11/29 04:04:32;;;;;;;0.10;0.10;;;;;;;;;;5048022;28;20041;-71
2022/11/29 04:07:05;;;;;;;0.15;0.15;;;;;;;;;;5050631;28;20040;-70
2022/11/29 04:09:41;;;;;;;0.10;0.10;;;;;;;;;;5050121;28;20517;-72
2022/11/29 04:12:25;;;;;;;0.20;0.20;;;;;;;;;;5050451;28;20475;-71
2022/11/29 04:15:20;;;;;;;0.25;0.25;;;;;;;;;;5049657;28;20033;-71
2022/11/29 04:18:04;;;;;;;0.10;0.10;;;;;;;;;;5049094;28;20056;-71
2022/11/29 04:20:43;;;;;;;0.20;0.20;;;;;;;;;;5050081;28;20033;-71
2022/11/29 04:23:15;;;;;;;0.20;0.20;;;;;;;;;;5048319;28;20037;-71
2022/11/29 04:25:59;;;;;;;0.10;0.10;;;;;;;;;;5049654;28;20079;-71
2022/11/29 04:28:30;;;;;;;0.10;0.10;;;;;;;;;;5049842;28;20025;-71
2022/11/29 04:30:56;;;;;;;0.20;0.20;;;;;;;;;;5050093;28;20029;-70
2022/11/29 04:33:21;;;;;;;0.20;0.20;;;;;;;;;;5049856;28;20025;-70
2022/11/29 04:36:05;;;;;;;0.10;0.10;;;;;;;;;;5049220;28;20027;-70
2022/11/29 04:38:54;;;;;;;0.15;0.15;;;;;;;;;;5082386;28;20029;-71
2022/11/29 04:41:19;;;;;;;0.30;0.30;;;;;;;;;;5049980;28;20043;-70
2022/11/29 04:44:03;;;;;;;0.17;0.17;;;;;;;;;;5049637;28;20033;-73
2022/11/29 04:46:28;;;;;;;0.20;0.20;;;;;;;;;;5050038;28;20043;-70
2022/11/29 04:48:54;;;;;;;0.40;0.40;;;;;;;;;;5049419;28;20033;-71
2022/11/29 04:51:38;;;;;;;0.20;0.20;;;;;;;;;;5065314;28;20098;-71
2022/11/29 04:54:06;;;;;;;3.63;3.40;;;;;;;;;;5069378;28;20500;-71
2022/11/29 04:56:50;;;;;;;0.10;0.10;;;;;;;;;;5067942;28;20056;-71
2022/11/29 04:59:38;;;;;;;0.10;0.10;;;;;;;;;;5069304;28;20067;-70
2022/11/29 05:02:11;;;;;;;0.20;0.20;;;;;;;;;;5068749;28;20100;-69
2022/11/29 05:04:57;;;;;;;0.10;0.10;;;;;;;;;;5069303;28;20064;-68
2022/11/29 05:07:22;;;;;;;0.28;0.28;;;;;;;;;;5069472;28;20028;-68
2022/11/29 05:09:57;;;;;;;0.43;0.38;;;;;;;;;;5069384;28;20435;-70
2022/11/29 05:12:43;;;;;;;0.20;0.20;;;;;;;;;;5051598;28;20469;-70
2022/11/29 05:15:21;;;;;;;0.10;0.10;;;;;;;;;;5068938;28;20132;-70
2022/11/29 05:17:54;;;;;;;0.30;0.30;;;;;;;;;;5067980;28;20098;-70
2022/11/29 05:20:33;;;;;;;0.20;0.20;;;;;;;;;;5069885;28;20418;-70
2022/11/29 05:23:01;;;;;;;5.95;1.55;;;;;;;;;;5069258;28;20120;-70
2022/11/29 05:25:53;;;;;;;0.10;0.10;;;;;;;;;;5069022;28;20024;-73
2022/11/29 05:28:29;;;;;;;0.20;0.20;;;;;;;;;;5069523;28;20516;-71
2022/11/29 05:31:13;;;;;;;0.50;0.50;;;;;;;;;;5069322;28;20033;-70
2022/11/29 05:33:52;;;;;;;0.55;0.55;;;;;;;;;;5068877;28;20033;-71
2022/11/29 05:36:25;;;;;;;0.43;0.43;;;;;;;;;;5067797;28;20037;-71
2022/11/29 05:38:56;;;;;;;0.10;0.10;;;;;;;;;;5051159;28;20068;-73
2022/11/29 05:41:31;;;;;;;0.30;0.30;;;;;;;;;;5069050;28;20029;-71
2022/11/29 05:43:59;;;;;;;0.10;0.10;;;;;;;;;;5069364;28;20170;-70
2022/11/29 05:46:27;;;;;;;0.20;0.20;;;;;;;;;;5066476;28;20440;-70
2022/11/29 05:48:56;;;;;;;0.20;0.20;;;;;;;;;;5067257;28;20028;-71
2022/11/29 05:51:29;;;;;;;0.13;0.13;;;;;;;;;;5068166;28;20033;-69
2022/11/29 05:54:06;;;;;;;0.20;0.20;;;;;;;;;;5067390;28;20031;-70
2022/11/29 05:56:32;;;;;;;0.20;0.20;;;;;;;;;;5069041;28;20102;-69
2022/11/29 05:58:59;;;;;;;0.75;0.75;;;;;;;;;;5068494;28;20487;-71
2022/11/29 06:01:39;;;;;;;0.20;0.20;;;;;;;;;;5049777;28;20434;-72
2022/11/29 06:04:09;;;;;;;0.30;0.30;;;;;;;;;;5068978;28;20032;-70
2022/11/29 06:06:38;;;;;;;0.15;0.15;;;;;;;;;;5062179;28;20764;-70
2022/11/29 06:09:12;;;;;;;0.10;0.10;;;;;;;;;;5057710;28;20028;-70
2022/11/29 06:11:49;;;;;;;0.20;0.20;;;;;;;;;;5067653;28;20194;-71
2022/11/29 06:14:14;;;;;;;0.20;0.20;;;;;;;;;;5068176;28;20515;-70
2022/11/29 06:16:46;;;;;;;0.10;0.10;;;;;;;;;;5063428;28;20036;-69
2022/11/29 06:19:30;;;;;;;0.30;0.30;;;;;;;;;;5072358;28;20029;-71
2022/11/29 06:21:56;;;;;;;0.13;0.13;;;;;;;;;;5071091;28;20082;-72
2022/11/29 06:24:22;;;;;;;2.75;1.60;;;;;;;;;;5071906;28;20093;-70
2022/11/29 06:26:50;;;;;;;0.20;0.20;;;;;;;;;;5070936;28;20131;-70
2022/11/29 06:29:22;;;;;;;0.68;0.68;;;;;;;;;;5072399;28;20028;-71
2022/11/29 06:31:53;;;;;;;3.60;2.40;;;;;;;;;;5069963;28;20111;-70
2022/11/29 06:34:19;;;;;;;0.20;0.20;;;;;;;;;;5071980;28;20047;-71
2022/11/29 06:36:50;;;;;;;0.20;0.20;;;;;;;;;;5071300;28;20017;-69
2022/11/29 06:39:16;;;;;;;2.03;0.35;;;;;;;;;;5071307;28;20020;-71
2022/11/29 06:41:41;;;;;;;0.17;0.17;;;;;;;;;;5070673;28;20034;-70
2022/11/29 06:44:07;;;;;;;0.10;0.10;;;;;;;;;;5071649;28;20041;-70
2022/11/29 06:46:38;;;;;;;0.10;0.10;;;;;;;;;;5070314;28;20036;-70
2022/11/29 06:49:24;;;;;;;0.38;0.38;;;;;;;;;;5071729;28;20091;-70
2022/11/29 06:52:16;;;;;;;0.10;0.10;;;;;;;;;;5057375;28;20515;-69
2022/11/29 06:54:48;;;;;;;1.55;1.38;;;;;;;;;;5054110;28;20052;-69
2022/11/29 06:57:13;;;;;;;0.10;0.10;;;;;;;;;;5071875;28;20414;-70
2022/11/29 06:59:41;;;;;;;0.15;0.15;;;;;;;;;;5073061;28;20107;-69
2022/11/29 07:02:10;;;;;;;0.10;0.10;;;;;;;;;;5072242;28;20021;-69
2022/11/29 07:04:38;;;;;;;0.10;0.10;;;;;;;;;;5073182;28;20123;-69
2022/11/29 07:07:07;;;;;;;1.00;0.93;;;;;;;;;;5070415;28;20036;-70
2022/11/29 07:09:33;;;;;;;0.17;0.17;;;;;;;;;;5070851;28;20027;-71
2022/11/29 07:11:59;;;;;;;1.10;1.10;;;;;;;;;;5071767;28;20075;-72
2022/11/29 07:14:24;;;;;;;9.30;1.40;;;;;;;;;;5071698;28;20041;-71
2022/11/29 07:17:02;;;;;;;0.52;0.52;;;;;;;;;;5071201;28;20020;-71
2022/11/29 07:19:46;;;;;;;0.17;0.17;;;;;;;;;;5071451;28;20036;-70
2022/11/29 07:22:30;;;;;;;0.22;0.22;;;;;;;;;;5070548;28;20024;-70
2022/11/29 07:25:00;;;;;;;0.10;0.10;;;;;;;;;;5070172;28;20071;-72
2022/11/29 07:27:38;;;;;;;0.22;0.22;;;;;;;;;;5071399;28;20056;-70
2022/11/29 07:30:04;;;;;;;0.30;0.30;;;;;;;;;;5071227;28;20033;-71
2022/11/29 07:32:52;;;;;;;0.20;0.20;;;;;;;;;;5070875;28;20369;-72
2022/11/29 07:35:20;;;;;;;0.30;0.30;;;;;;;;;;5069818;28;20094;-73
2022/11/29 07:37:53;;;;;;;0.10;0.10;;;;;;;;;;5052751;28;20127;-74
2022/11/29 07:40:38;;;;;;;0.20;0.20;;;;;;;;;;5071506;28;20066;-70
2022/11/29 07:43:22;;;;;;;0.20;0.20;;;;;;;;;;5070950;28;20375;-69
2022/11/29 07:45:48;;;;;;;0.10;0.10;;;;;;;;;;5069745;28;20106;-71
2022/11/29 07:48:15;;;;;;;0.10;0.10;;;;;;;;;;5069329;28;20044;-70
2022/11/29 07:50:40;;;;;;;0.10;0.10;;;;;;;;;;5069828;28;20036;-70
2022/11/29 07:53:06;;;;;;;1.73;1.63;;;;;;;;;;5069864;28;20028;-70
2022/11/29 07:55:33;;;;;;;0.85;0.85;;;;;;;;;;5069181;28;20051;-70
2022/11/29 07:57:58;;;;;;;0.13;0.13;;;;;;;;;;5069661;28;20033;-69
2022/11/29 08:00:24;;;;;;;0.17;0.17;;;;;;;;;;5063493;28;20029;-70
2022/11/29 08:02:49;;;;;;;0.10;0.10;;;;;;;;;;5057199;28;20069;-70
2022/11/29 08:05:15;;;;;;;0.10;0.10;;;;;;;;;;5057498;28;20071;-70
2022/11/29 08:07:40;;;;;;;0.10;0.10;;;;;;;;;;5053954;28;20064;-70
2022/11/29 08:10:07;;;;;;;0.20;0.20;;;;;;;;;;5050255;28;20067;-69
2022/11/29 08:12:33;;;;;;;0.13;0.13;;;;;;;;;;5050067;28;20021;-69
2022/11/29 08:14:58;;;;;;;0.10;0.10;;;;;;;;;;5050306;28;20040;-70
2022/11/29 08:17:24;;;;;;;2.30;2.17;;;;;;;;;;5050058;28;20037;-68
2022/11/29 08:19:51;;;;;;;0.17;0.17;;;;;;;;;;5050170;28;20035;-68
2022/11/29 08:22:17;;;;;;;0.10;0.10;;;;;;;;;;5049998;28;20029;-69
2022/11/29 08:24:42;;;;;;;0.40;0.40;;;;;;;;;;5050166;28;20108;-72
2022/11/29 08:27:08;;;;;;;0.13;0.13;;;;;;;;;;5050068;28;20033;-68
2022/11/29 08:29:33;;;;;;;0.20;0.20;;;;;;;;;;5049562;28;20021;-69
2022/11/29 08:31:58;;;;;;;0.82;0.63;;;;;;;;;;5050084;28;20150;-69
2022/11/29 08:34:24;;;;;;;0.20;0.20;;;;;;;;;;5050181;28;20082;-70
2022/11/29 08:36:50;;;;;;;0.32;0.32;;;;;;;;;;5049824;28;20028;-69
2022/11/29 08:39:15;;;;;;;2.55;1.05;;;;;;;;;;5049811;28;20021;-69
2022/11/29 08:41:41;;;;;;;0.17;0.17;;;;;;;;;;5049659;28;20029;-69
2022/11/29 08:44:07;;;;;;;0.32;0.32;;;;;;;;;;5049870;28;20033;-69
2022/11/29 08:49:16;;;;;;;0.85;0.85;;;;;;;;;;5049824;28;20480;-69
2022/11/29 08:51:42;;;;;;;0.10;0.10;;;;;;;;;;5049337;28;20043;-69
2022/11/29 08:54:07;;;;;;;0.10;0.10;;;;;;;;;;5068754;28;20073;-69
2022/11/29 08:56:35;;;;;;;0.10;0.10;;;;;;;;;;5068466;28;20479;-70
2022/11/29 08:59:00;;;;;;;0.10;0.10;;;;;;;;;;5068639;28;20024;-69
2022/11/29 09:01:26;;;;;;;0.15;0.15;;;;;;;;;;5068939;28;20423;-70
2022/11/29 09:04:05;;;;;;;0.30;0.30;;;;;;;;;;5068732;28;20546;-70
2022/11/29 09:06:32;;;;;;;0.10;0.10;;;;;;;;;;5067213;28;20032;-69
2022/11/29 09:08:58;;;;;;;0.20;0.20;;;;;;;;;;5069224;28;20032;-69
2022/11/29 09:11:25;;;;;;;0.63;0.63;;;;;;;;;;5066914;28;20108;-71
2022/11/29 09:14:27;;;;;;;0.20;0.20;;;;;;;;;;5058816;28;20028;-74
2022/11/29 09:17:07;;;;;;;0.10;0.10;;;;;;;;;;5066325;28;20474;-73
2022/11/29 09:19:32;;;;;;;0.20;0.20;;;;;;;;;;5060839;28;20036;-74
2022/11/29 09:21:58;;;;;;;0.10;0.10;;;;;;;;;;5049218;28;20056;-73
2022/11/29 09:24:23;;;;;;;0.20;0.20;;;;;;;;;;5049010;28;20041;-74
2022/11/29 09:27:28;;;;;;;0.20;0.20;;;;;;;;;;5052064;28;20021;-73
2022/11/29 09:29:53;;;;;;;0.20;0.20;;;;;;;;;;5025171;28;20037;-74
2022/11/29 09:32:19;;;;;;;0.40;0.40;;;;;;;;;;5019093;28;20038;-73
2022/11/29 09:34:44;;;;;;;0.20;0.20;;;;;;;;;;5036241;28;20041;-73
2022/11/29 09:37:10;;;;;;;0.28;0.28;;;;;;;;;;5053959;28;20471;-73
2022/11/29 09:39:35;;;;;;;0.10;0.10;;;;;;;;;;5055576;28;20427;-73
2022/11/29 09:42:08;;;;;;;0.20;0.20;;;;;;;;;;5052081;28;20021;-72
2022/11/29 09:44:42;;;;;;;0.20;0.20;;;;;;;;;;5064215;28;20045;-74
2022/11/29 09:47:27;;;;;;;0.28;0.28;;;;;;;;;;5066917;28;20036;-74
2022/11/29 09:49:55;;;;;;;0.20;0.20;;;;;;;;;;5071074;28;20027;-75
2022/11/29 09:52:40;;;;;;;0.20;0.20;;;;;;;;;;5072704;28;20471;-73
2022/11/29 09:55:28;;;;;;;0.25;0.25;;;;;;;;;;5072286;28;20594;-74
2022/11/29 09:57:55;;;;;;;0.20;0.20;;;;;;;;;;5072238;28;20032;-73
2022/11/29 10:00:20;;;;;;;0.20;0.20;;;;;;;;;;5072588;28;20048;-73
2022/11/29 10:02:54;;;;;;;0.35;0.30;;;;;;;;;;5072511;28;20036;-73
2022/11/29 10:05:27;;;;;;;0.30;0.30;;;;;;;;;;5071747;28;20476;-73
2022/11/29 10:08:15;;;;;;;0.40;0.40;;;;;;;;;;5071483;28;20039;-74
2022/11/29 10:10:48;;;;;;;0.30;0.30;;;;;;;;;;5065486;28;20041;-74
2022/11/29 10:13:20;;;;;;;2.92;2.78;;;;;;;;;;5071012;28;20028;-73
2022/11/29 10:15:49;;;;;;;0.38;0.38;;;;;;;;;;5071019;28;20016;-72
2022/11/29 10:18:20;;;;;;;0.30;0.30;;;;;;;;;;5072070;28;20422;-73
2022/11/29 10:20:48;;;;;;;0.30;0.30;;;;;;;;;;5069335;28;20096;-75
2022/11/29 10:23:27;;;;;;;0.45;0.30;;;;;;;;;;5071342;28;20430;-71
2022/11/29 10:25:54;;;;;;;0.20;0.20;;;;;;;;;;5071472;28;20441;-74
2022/11/29 10:28:30;;;;;;;0.32;0.32;;;;;;;;;;5070463;28;20032;-77
2022/11/29 10:31:00;;;;;;;0.20;0.20;;;;;;;;;;5062796;28;20021;-74
2022/11/29 10:33:29;;;;;;;0.30;0.30;;;;;;;;;;5053409;28;20028;-74
2022/11/29 10:35:56;;;;;;;0.20;0.20;;;;;;;;;;5071700;28;20468;-73
2022/11/29 10:38:23;;;;;;;0.20;0.20;;;;;;;;;;5072248;28;20143;-74
2022/11/29 10:40:52;;;;;;;0.28;0.28;;;;;;;;;;5071793;28;20021;-73
2022/11/29 10:43:17;;;;;;;0.30;0.30;;;;;;;;;;5072399;28;20068;-74
2022/11/29 10:45:48;;;;;;;0.40;0.40;;;;;;;;;;5070450;28;20060;-74
2022/11/29 10:48:33;;;;;;;0.45;0.45;;;;;;;;;;5052102;28;20033;-74
2022/11/29 10:50:59;;;;;;;0.40;0.40;;;;;;;;;;5068432;28;20028;-74
2022/11/29 10:53:31;;;;;;;1.60;1.50;;;;;;;;;;5069676;28;20036;-74
2022/11/29 10:55:59;;;;;;;0.30;0.30;;;;;;;;;;5069478;28;20053;-73
2022/11/29 10:58:25;;;;;;;0.30;0.30;;;;;;;;;;5068112;28;20029;-73
2022/11/29 11:00:51;;;;;;;0.25;0.25;;;;;;;;;;5066912;28;20511;-74
2022/11/29 11:03:22;;;;;;;0.40;0.40;;;;;;;;;;5068304;28;20033;-74
2022/11/29 11:06:05;;;;;;;0.43;0.43;;;;;;;;;;5068477;28;20244;-74
2022/11/29 11:08:31;;;;;;;0.30;0.30;;;;;;;;;;5067241;28;20479;-74
2022/11/29 11:10:57;;;;;;;0.25;0.25;;;;;;;;;;5068732;28;20523;-74
2022/11/29 11:13:24;;;;;;;0.20;0.20;;;;;;;;;;5068179;28;20495;-73
2022/11/29 11:16:13;;;;;;;0.30;0.30;;;;;;;;;;5069254;28;20058;-75
2022/11/29 11:18:39;;;;;;;0.57;0.57;;;;;;;;;;5063846;28;20101;-74
2022/11/29 11:21:07;;;;;;;0.38;0.30;;;;;;;;;;5069195;28;20463;-73
2022/11/29 11:23:33;;;;;;;0.20;0.20;;;;;;;;;;5068572;28;20068;-74
2022/11/29 11:26:01;;;;;;;0.52;0.52;;;;;;;;;;5069117;28;20048;-74
2022/11/29 11:28:28;;;;;;;0.20;0.20;;;;;;;;;;5069532;28;20487;-75
2022/11/29 11:30:59;;;;;;;0.50;0.50;;;;;;;;;;5071192;28;20020;-74
2022/11/29 11:33:25;;;;;;;0.25;0.25;;;;;;;;;;5070800;28;20044;-74
2022/11/29 11:36:00;;;;;;;1.17;0.73;;;;;;;;;;5071267;28;20033;-73
2022/11/29 11:38:25;;;;;;;0.25;0.25;;;;;;;;;;5070618;28;20435;-73
2022/11/29 11:41:06;;;;;;;0.22;0.22;;;;;;;;;;5070793;28;20060;-73
2022/11/29 11:43:32;;;;;;;0.40;0.40;;;;;;;;;;5070544;28;20033;-74
2022/11/29 11:45:58;;;;;;;0.20;0.20;;;;;;;;;;5070520;28;20039;-74
2022/11/29 11:48:23;;;;;;;0.20;0.20;;;;;;;;;;5070471;28;20029;-74
2022/11/29 11:50:49;;;;;;;0.40;0.40;;;;;;;;;;5070728;28;20032;-74
2022/11/29 11:53:20;;;;;;;0.20;0.20;;;;;;;;;;5070580;28;20063;-74
2022/11/29 11:56:04;;;;;;;0.30;0.30;;;;;;;;;;5068808;28;20449;-73
2022/11/29 11:58:35;;;;;;;0.20;0.20;;;;;;;;;;5070635;28;20490;-74
2022/11/29 12:01:24;;;;;;;0.20;0.20;;;;;;;;;;5068940;28;20037;-73
2022/11/29 12:03:53;;;;;;;0.25;0.25;;;;;;;;;;5069932;28;20044;-75
2022/11/29 12:06:18;;;;;;;;;;;;;;;;;;5070625;28;20384;-75
2022/11/29 12:08:47;;;;;;;0.30;0.30;;;;;;;;;;5069918;28;20018;-74
2022/11/29 12:11:13;;;;;;;0.20;0.20;;;;;;;;;;5069535;28;20021;-74
2022/11/29 12:13:42;;;;;;;0.20;0.20;;;;;;;;;;5069831;28;20031;-76
2022/11/29 12:16:13;;;;;;;0.20;0.20;;;;;;;;;;5069974;28;20067;-75
2022/11/29 12:18:43;;;;;;;0.20;0.20;;;;;;;;;;5070137;28;20032;-73
2022/11/29 12:21:11;;;;;;;0.20;0.20;;;;;;;;;;5070563;28;20032;-74
2022/11/29 12:23:56;;;;;;;0.40;0.40;;;;;;;;;;5069479;28;20476;-73
2022/11/29 12:26:23;;;;;;;0.20;0.20;;;;;;;;;;5069684;28;20044;-74
2022/11/29 12:28:49;;;;;;;0.20;0.20;;;;;;;;;;5069750;28;20058;-75
2022/11/29 12:31:23;;;;;;;0.20;0.20;;;;;;;;;;5069704;28;20025;-75
2022/11/29 12:33:55;;;;;;;0.20;0.20;;;;;;;;;;5069751;28;20033;-76
2022/11/29 12:36:29;;;;;;;0.30;0.30;;;;;;;;;;5069824;28;20024;-75
2022/11/29 12:39:06;;;;;;;0.25;0.25;;;;;;;;;;5070083;28;20036;-75
2022/11/29 12:41:41;;;;;;;0.22;0.22;;;;;;;;;;5069752;28;20063;-76
2022/11/29 12:44:13;;;;;;;0.88;0.88;;;;;;;;;;5069404;28;20043;-75
2022/11/29 12:46:38;;;;;;;0.43;0.40;;;;;;;;;;5069387;28;20029;-75
2022/11/29 12:49:16;;;;;;;0.17;0.17;;;;;;;;;;5069202;28;20364;-74
2022/11/29 12:51:45;;;;;;;0.20;0.20;;;;;;;;;;5069576;28;20024;-74
2022/11/29 12:54:23;;;;;;;0.40;0.40;;;;;;;;;;5069634;28;20035;-74
2022/11/29 12:56:54;;;;;;;0.40;0.40;;;;;;;;;;5069342;28;20055;-73
2022/11/29 12:59:19;;;;;;;0.28;0.28;;;;;;;;;;5069613;28;20032;-73
2022/11/29 13:01:47;;;;;;;0.30;0.30;;;;;;;;;;5069426;28;20025;-73
2022/11/29 13:04:31;;;;;;;0.30;0.30;;;;;;;;;;5069733;28;20086;-74
2022/11/29 13:06:59;;;;;;;0.30;0.30;;;;;;;;;;5068527;28;20036;-74
2022/11/29 13:09:25;;;;;;;0.38;0.38;;;;;;;;;;5068176;28;20367;-73
2022/11/29 13:12:02;;;;;;;0.30;0.30;;;;;;;;;;5068885;28;20116;-73
2022/11/29 13:14:44;;;;;;;0.20;0.20;;;;;;;;;;5069059;28;20036;-74
2022/11/29 13:17:16;;;;;;;0.25;0.25;;;;;;;;;;5069631;28;20097;-75
2022/11/29 13:19:41;;;;;;;0.20;0.20;;;;;;;;;;5070584;28;20380;-75
2022/11/29 13:22:16;;;;;;;0.20;0.20;;;;;;;;;;5073585;28;20029;-76
2022/11/29 13:24:44;;;;;;;0.32;0.32;;;;;;;;;;5072941;28;20033;-75
2022/11/29 13:27:18;;;;;;;0.20;0.20;;;;;;;;;;5073411;28;20506;-74
2022/11/29 13:29:44;;;;;;;0.30;0.30;;;;;;;;;;5072996;28;20083;-74
2022/11/29 13:32:19;;;;;;;0.20;0.20;;;;;;;;;;5073505;28;20359;-74
2022/11/29 13:34:46;;;;;;;0.20;0.20;;;;;;;;;;5073519;28;20028;-74
2022/11/29 13:37:17;;;;;;;0.20;0.20;;;;;;;;;;5072760;28;20387;-75
2022/11/29 13:39:56;;;;;;;0.20;0.20;;;;;;;;;;5072967;28;20032;-73
2022/11/29 13:42:41;;;;;;;0.22;0.22;;;;;;;;;;5073132;28;20447;-74
2022/11/29 13:45:25;;;;;;;0.25;0.25;;;;;;;;;;5072791;28;20052;-73
2022/11/29 13:47:55;;;;;;;0.20;0.20;;;;;;;;;;5072680;28;20029;-73
2022/11/29 13:50:38;;;;;;;0.20;0.20;;;;;;;;;;5072927;28;20497;-74
2022/11/29 13:53:15;;;;;;;0.30;0.30;;;;;;;;;;5072709;28;20032;-74
2022/11/29 13:56:00;;;;;;;0.30;0.30;;;;;;;;;;5072621;28;20141;-74
2022/11/29 13:58:38;;;;;;;0.30;0.30;;;;;;;;;;5071237;28;20491;-74
2022/11/29 14:01:10;;;;;;;0.20;0.20;;;;;;;;;;5072615;28;20027;-74
2022/11/29 14:03:44;;;;;;;0.20;0.20;;;;;;;;;;5071114;28;20111;-75
2022/11/29 14:06:11;;;;;;;0.50;0.50;;;;;;;;;;5072915;28;20036;-74
2022/11/29 14:08:38;;;;;;;0.30;0.30;;;;;;;;;;5072409;28;20078;-73
2022/11/29 14:11:05;;;;;;;0.20;0.20;;;;;;;;;;5072334;28;20016;-73
2022/11/29 14:13:40;;;;;;;0.30;0.30;;;;;;;;;;5072259;28;20801;-74
2022/11/29 14:16:13;;;;;;;0.20;0.20;;;;;;;;;;5072205;28;20131;-75
2022/11/29 14:18:41;;;;;;;0.20;0.20;;;;;;;;;;5072361;28;20037;-75
2022/11/29 14:21:06;;;;;;;0.65;0.50;;;;;;;;;;5071988;28;20028;-74
2022/11/29 14:23:34;;;;;;;0.30;0.30;;;;;;;;;;5071901;28;20040;-73
2022/11/29 14:25:59;;;;;;;0.40;0.40;;;;;;;;;;5072377;28;20037;-77
2022/11/29 14:28:28;;;;;;;0.30;0.30;;;;;;;;;;5072049;28;20036;-75
2022/11/29 14:30:54;;;;;;;0.20;0.20;;;;;;;;;;5072041;28;20064;-76
2022/11/29 14:33:19;;;;;;;0.30;0.30;;;;;;;;;;5071145;28;20033;-75
2022/11/29 14:35:47;;;;;;;0.35;0.35;;;;;;;;;;5071598;28;20418;-75
2022/11/29 14:38:18;;;;;;;0.20;0.20;;;;;;;;;;5072157;28;20044;-75
2022/11/29 14:40:53;;;;;;;0.20;0.20;;;;;;;;;;5071642;28;20033;-75
2022/11/29 14:43:27;;;;;;;0.10;0.10;;;;;;;;;;5070964;28;20040;-75
2022/11/29 14:46:11;;;;;;;0.20;0.20;;;;;;;;;;5069807;28;20032;-75
2022/11/29 14:48:37;;;;;;;0.22;0.22;;;;;;;;;;5069972;28;20028;-75
2022/11/29 14:51:13;;;;;;;0.22;0.22;;;;;;;;;;5068550;28;20036;-74
2022/11/29 14:53:39;;;;;;;0.20;0.20;;;;;;;;;;5069972;28;20437;-74
2022/11/29 14:56:23;;;;;;;0.20;0.20;;;;;;;;;;5071407;28;20080;-74
2022/11/29 14:59:09;;;;;;;0.17;0.17;;;;;;;;;;5071888;28;20044;-74
2022/11/29 15:01:35;;;;;;;0.20;0.20;;;;;;;;;;5070303;28;20024;-76
2022/11/29 15:04:01;;;;;;;0.20;0.20;;;;;;;;;;5071435;28;20049;-75
2022/11/29 15:06:29;;;;;;;0.20;0.20;;;;;;;;;;5071557;28;20025;-73
2022/11/29 15:09:00;;;;;;;0.25;0.25;;;;;;;;;;5070655;28;20064;-74
2022/11/29 15:11:26;;;;;;;4.05;1.77;;;;;;;;;;5070800;28;20442;-73
2022/11/29 15:13:58;;;;;;;0.20;0.20;;;;;;;;;;5071094;28;20029;-75